sensor_id;sensor_type;location;lat;lon;timestamp;P1;durP1;ratioP1;P2;durP2;ratioP2
5674;SDS011;2860;54.284;10.158;2023-04-24T00:01:53;8.32;;;7.82;;
5674;SDS011;2860;54.284;10.158;2023-04-24T00:04:20;13.98;;;12.52;;
5674;SDS011;2860;54.284;10.158;2023-04-24T00:06:45;8.82;;;8.13;;
5674;SDS011;2860;54.284;10.158;2023-04-24T00:09:14;8.95;;;8.35;;
5674;SDS011;2860;54.284;10.158;2023-04-24T00:11:39;7.93;;;7.53;;
5674;SDS011;2860;54.284;10.158;2023-04-24T00:14:06;8.40;;;7.60;;
5674;SDS011;2860;54.284;10.158;2023-04-24T00:16:31;7.85;;;7.25;;
5674;SDS011;2860;54.284;10.158;2023-04-24T00:18:57;7.68;;;7.28;;
5674;SDS011;2860;54.284;10.158;2023-04-24T00:21:23;8.13;;;7.40;;
5674;SDS011;2860;54.284;10.158;2023-04-24T00:23:50;7.70;;;7.30;;
5674;SDS011;2860;54.284;10.158;2023-04-24T00:26:16;8.52;;;7.93;;
5674;SDS011;2860;54.284;10.158;2023-04-24T00:28:41;7.95;;;7.45;;
5674;SDS011;2860;54.284;10.158;2023-04-24T00:31:06;8.77;;;8.18;;
5674;SDS011;2860;54.284;10.158;2023-04-24T00:33:32;8.20;;;7.75;;
5674;SDS011;2860;54.284;10.158;2023-04-24T00:35:58;8.10;;;7.43;;
5674;SDS011;2860;54.284;10.158;2023-04-24T00:38:23;9.23;;;8.50;;
5674;SDS011;2860;54.284;10.158;2023-04-24T00:40:49;9.63;;;9.02;;
5674;SDS011;2860;54.284;10.158;2023-04-24T00:43:15;8.38;;;7.97;;
5674;SDS011;2860;54.284;10.158;2023-04-24T00:45:41;9.38;;;8.68;;
5674;SDS011;2860;54.284;10.158;2023-04-24T00:48:07;10.13;;;9.43;;
5674;SDS011;2860;54.284;10.158;2023-04-24T00:50:32;9.85;;;9.00;;
5674;SDS011;2860;54.284;10.158;2023-04-24T00:53:00;10.40;;;9.68;;
5674;SDS011;2860;54.284;10.158;2023-04-24T00:55:25;9.68;;;8.88;;
5674;SDS011;2860;54.284;10.158;2023-04-24T00:57:51;10.13;;;9.23;;
5674;SDS011;2860;54.284;10.158;2023-04-24T01:00:17;9.82;;;9.05;;
5674;SDS011;2860;54.284;10.158;2023-04-24T01:02:43;9.93;;;9.20;;
5674;SDS011;2860;54.284;10.158;2023-04-24T01:05:10;11.02;;;9.95;;
5674;SDS011;2860;54.284;10.158;2023-04-24T01:07:38;10.75;;;9.85;;
5674;SDS011;2860;54.284;10.158;2023-04-24T01:10:05;9.10;;;8.45;;
5674;SDS011;2860;54.284;10.158;2023-04-24T01:12:33;9.90;;;9.13;;
5674;SDS011;2860;54.284;10.158;2023-04-24T01:14:58;9.52;;;9.02;;
5674;SDS011;2860;54.284;10.158;2023-04-24T01:17:24;9.02;;;8.27;;
5674;SDS011;2860;54.284;10.158;2023-04-24T01:19:50;8.77;;;8.07;;
5674;SDS011;2860;54.284;10.158;2023-04-24T01:22:18;9.75;;;8.90;;
5674;SDS011;2860;54.284;10.158;2023-04-24T01:24:44;8.13;;;7.70;;
5674;SDS011;2860;54.284;10.158;2023-04-24T01:27:10;10.45;;;8.15;;
5674;SDS011;2860;54.284;10.158;2023-04-24T01:29:36;7.75;;;7.25;;
5674;SDS011;2860;54.284;10.158;2023-04-24T01:32:02;10.57;;;8.93;;
5674;SDS011;2860;54.284;10.158;2023-04-24T01:34:28;10.45;;;9.68;;
5674;SDS011;2860;54.284;10.158;2023-04-24T01:36:54;9.55;;;8.88;;
5674;SDS011;2860;54.284;10.158;2023-04-24T01:39:21;8.63;;;8.02;;
5674;SDS011;2860;54.284;10.158;2023-04-24T01:41:48;8.27;;;7.65;;
5674;SDS011;2860;54.284;10.158;2023-04-24T01:44:15;9.40;;;8.52;;
5674;SDS011;2860;54.284;10.158;2023-04-24T01:46:40;8.88;;;8.20;;
5674;SDS011;2860;54.284;10.158;2023-04-24T01:49:06;9.50;;;9.00;;
5674;SDS011;2860;54.284;10.158;2023-04-24T01:51:32;10.88;;;7.85;;
5674;SDS011;2860;54.284;10.158;2023-04-24T01:53:58;8.80;;;7.97;;
5674;SDS011;2860;54.284;10.158;2023-04-24T01:56:24;9.30;;;8.48;;
5674;SDS011;2860;54.284;10.158;2023-04-24T01:58:50;9.77;;;9.07;;
5674;SDS011;2860;54.284;10.158;2023-04-24T02:01:18;9.30;;;8.73;;
5674;SDS011;2860;54.284;10.158;2023-04-24T02:03:45;8.30;;;7.90;;
5674;SDS011;2860;54.284;10.158;2023-04-24T02:06:10;8.90;;;8.13;;
5674;SDS011;2860;54.284;10.158;2023-04-24T02:08:36;8.80;;;8.20;;
5674;SDS011;2860;54.284;10.158;2023-04-24T02:11:01;9.35;;;8.65;;
5674;SDS011;2860;54.284;10.158;2023-04-24T02:13:27;10.25;;;9.27;;
5674;SDS011;2860;54.284;10.158;2023-04-24T02:15:53;10.45;;;9.35;;
5674;SDS011;2860;54.284;10.158;2023-04-24T02:18:18;9.55;;;9.05;;
5674;SDS011;2860;54.284;10.158;2023-04-24T02:20:44;9.18;;;8.48;;
5674;SDS011;2860;54.284;10.158;2023-04-24T02:23:10;8.48;;;8.00;;
5674;SDS011;2860;54.284;10.158;2023-04-24T02:25:36;9.93;;;9.23;;
5674;SDS011;2860;54.284;10.158;2023-04-24T02:28:01;10.70;;;8.82;;
5674;SDS011;2860;54.284;10.158;2023-04-24T02:30:27;17.67;;;9.77;;
5674;SDS011;2860;54.284;10.158;2023-04-24T02:32:53;11.13;;;10.25;;
5674;SDS011;2860;54.284;10.158;2023-04-24T02:35:19;11.00;;;10.10;;
5674;SDS011;2860;54.284;10.158;2023-04-24T02:37:44;12.20;;;10.35;;
5674;SDS011;2860;54.284;10.158;2023-04-24T02:40:10;11.50;;;10.43;;
5674;SDS011;2860;54.284;10.158;2023-04-24T02:42:36;11.32;;;10.32;;
5674;SDS011;2860;54.284;10.158;2023-04-24T02:45:01;11.45;;;10.45;;
5674;SDS011;2860;54.284;10.158;2023-04-24T02:47:27;10.70;;;9.90;;
5674;SDS011;2860;54.284;10.158;2023-04-24T02:49:53;11.70;;;10.80;;
5674;SDS011;2860;54.284;10.158;2023-04-24T02:52:18;12.02;;;11.02;;
5674;SDS011;2860;54.284;10.158;2023-04-24T02:54:44;11.25;;;10.35;;
5674;SDS011;2860;54.284;10.158;2023-04-24T02:57:09;12.45;;;11.27;;
5674;SDS011;2860;54.284;10.158;2023-04-24T02:59:35;11.93;;;10.95;;
5674;SDS011;2860;54.284;10.158;2023-04-24T03:02:00;12.50;;;10.52;;
5674;SDS011;2860;54.284;10.158;2023-04-24T03:04:26;12.30;;;11.25;;
5674;SDS011;2860;54.284;10.158;2023-04-24T03:06:51;11.82;;;10.90;;
5674;SDS011;2860;54.284;10.158;2023-04-24T03:09:19;12.40;;;11.30;;
5674;SDS011;2860;54.284;10.158;2023-04-24T03:11:45;11.95;;;10.95;;
5674;SDS011;2860;54.284;10.158;2023-04-24T03:14:11;12.48;;;11.43;;
5674;SDS011;2860;54.284;10.158;2023-04-24T03:16:37;13.25;;;12.15;;
5674;SDS011;2860;54.284;10.158;2023-04-24T03:19:03;12.13;;;11.18;;
5674;SDS011;2860;54.284;10.158;2023-04-24T03:21:29;12.40;;;11.38;;
5674;SDS011;2860;54.284;10.158;2023-04-24T03:23:54;11.50;;;10.50;;
5674;SDS011;2860;54.284;10.158;2023-04-24T03:26:20;12.55;;;11.55;;
5674;SDS011;2860;54.284;10.158;2023-04-24T03:28:45;13.10;;;12.00;;
5674;SDS011;2860;54.284;10.158;2023-04-24T03:31:11;11.20;;;10.25;;
5674;SDS011;2860;54.284;10.158;2023-04-24T03:33:36;11.98;;;10.88;;
5674;SDS011;2860;54.284;10.158;2023-04-24T03:36:02;11.40;;;10.35;;
5674;SDS011;2860;54.284;10.158;2023-04-24T03:38:27;10.55;;;9.50;;
5674;SDS011;2860;54.284;10.158;2023-04-24T03:40:53;11.40;;;10.48;;
5674;SDS011;2860;54.284;10.158;2023-04-24T03:43:18;10.63;;;9.82;;
5674;SDS011;2860;54.284;10.158;2023-04-24T03:45:44;10.80;;;9.75;;
5674;SDS011;2860;54.284;10.158;2023-04-24T03:48:09;10.82;;;9.98;;
5674;SDS011;2860;54.284;10.158;2023-04-24T03:50:35;10.27;;;9.32;;
5674;SDS011;2860;54.284;10.158;2023-04-24T03:53:01;11.52;;;10.27;;
5674;SDS011;2860;54.284;10.158;2023-04-24T03:55:26;12.15;;;11.15;;
5674;SDS011;2860;54.284;10.158;2023-04-24T03:57:52;10.68;;;9.85;;
5674;SDS011;2860;54.284;10.158;2023-04-24T04:00:17;12.32;;;11.35;;
5674;SDS011;2860;54.284;10.158;2023-04-24T04:02:43;10.27;;;9.27;;
5674;SDS011;2860;54.284;10.158;2023-04-24T04:05:09;10.00;;;9.23;;
5674;SDS011;2860;54.284;10.158;2023-04-24T04:07:34;10.02;;;9.32;;
5674;SDS011;2860;54.284;10.158;2023-04-24T04:10:00;9.93;;;9.15;;
5674;SDS011;2860;54.284;10.158;2023-04-24T04:12:25;9.40;;;8.70;;
5674;SDS011;2860;54.284;10.158;2023-04-24T04:14:51;10.23;;;9.32;;
5674;SDS011;2860;54.284;10.158;2023-04-24T04:17:16;11.25;;;10.15;;
5674;SDS011;2860;54.284;10.158;2023-04-24T04:19:42;10.63;;;9.55;;
5674;SDS011;2860;54.284;10.158;2023-04-24T04:22:08;10.55;;;9.75;;
5674;SDS011;2860;54.284;10.158;2023-04-24T04:24:34;10.98;;;10.15;;
5674;SDS011;2860;54.284;10.158;2023-04-24T04:27:02;10.65;;;9.75;;
5674;SDS011;2860;54.284;10.158;2023-04-24T04:29:29;9.50;;;8.63;;
5674;SDS011;2860;54.284;10.158;2023-04-24T04:31:56;8.68;;;8.07;;
5674;SDS011;2860;54.284;10.158;2023-04-24T04:34:22;10.13;;;9.10;;
5674;SDS011;2860;54.284;10.158;2023-04-24T04:36:48;8.43;;;7.82;;
5674;SDS011;2860;54.284;10.158;2023-04-24T04:39:13;8.75;;;8.15;;
5674;SDS011;2860;54.284;10.158;2023-04-24T04:41:43;8.00;;;7.50;;
5674;SDS011;2860;54.284;10.158;2023-04-24T04:44:09;8.07;;;7.47;;
5674;SDS011;2860;54.284;10.158;2023-04-24T04:46:34;7.80;;;7.30;;
5674;SDS011;2860;54.284;10.158;2023-04-24T04:49:02;6.70;;;6.38;;
5674;SDS011;2860;54.284;10.158;2023-04-24T04:51:28;7.78;;;7.25;;
5674;SDS011;2860;54.284;10.158;2023-04-24T04:53:54;7.53;;;7.13;;
5674;SDS011;2860;54.284;10.158;2023-04-24T04:56:19;6.95;;;6.53;;
5674;SDS011;2860;54.284;10.158;2023-04-24T04:58:45;6.43;;;6.05;;
5674;SDS011;2860;54.284;10.158;2023-04-24T05:01:11;5.65;;;5.35;;
5674;SDS011;2860;54.284;10.158;2023-04-24T05:03:36;6.07;;;5.68;;
5674;SDS011;2860;54.284;10.158;2023-04-24T05:06:02;6.18;;;5.78;;
5674;SDS011;2860;54.284;10.158;2023-04-24T05:08:27;5.05;;;4.65;;
5674;SDS011;2860;54.284;10.158;2023-04-24T05:10:53;4.90;;;4.70;;
5674;SDS011;2860;54.284;10.158;2023-04-24T05:13:20;6.15;;;5.85;;
5674;SDS011;2860;54.284;10.158;2023-04-24T05:15:45;5.63;;;5.22;;
5674;SDS011;2860;54.284;10.158;2023-04-24T05:18:11;5.47;;;5.38;;
5674;SDS011;2860;54.284;10.158;2023-04-24T05:20:37;4.93;;;4.82;;
5674;SDS011;2860;54.284;10.158;2023-04-24T05:23:02;4.57;;;4.43;;
5674;SDS011;2860;54.284;10.158;2023-04-24T05:25:28;3.97;;;3.78;;
5674;SDS011;2860;54.284;10.158;2023-04-24T05:27:53;3.10;;;3.00;;
5674;SDS011;2860;54.284;10.158;2023-04-24T05:30:19;3.20;;;3.00;;
5674;SDS011;2860;54.284;10.158;2023-04-24T05:32:45;3.53;;;3.42;;
5674;SDS011;2860;54.284;10.158;2023-04-24T05:35:10;2.90;;;2.90;;
5674;SDS011;2860;54.284;10.158;2023-04-24T05:37:36;2.88;;;2.88;;
5674;SDS011;2860;54.284;10.158;2023-04-24T05:40:02;3.40;;;3.20;;
5674;SDS011;2860;54.284;10.158;2023-04-24T05:42:30;3.42;;;3.33;;
5674;SDS011;2860;54.284;10.158;2023-04-24T05:44:56;3.40;;;3.35;;
5674;SDS011;2860;54.284;10.158;2023-04-24T05:47:21;2.95;;;2.95;;
5674;SDS011;2860;54.284;10.158;2023-04-24T05:49:47;3.25;;;3.25;;
5674;SDS011;2860;54.284;10.158;2023-04-24T05:52:13;3.83;;;3.53;;
5674;SDS011;2860;54.284;10.158;2023-04-24T05:54:38;3.30;;;3.28;;
5674;SDS011;2860;54.284;10.158;2023-04-24T05:57:04;2.78;;;2.58;;
5674;SDS011;2860;54.284;10.158;2023-04-24T05:59:33;2.40;;;2.40;;
5674;SDS011;2860;54.284;10.158;2023-04-24T06:01:58;3.30;;;3.20;;
5674;SDS011;2860;54.284;10.158;2023-04-24T06:04:24;2.60;;;2.55;;
5674;SDS011;2860;54.284;10.158;2023-04-24T06:06:50;3.28;;;3.17;;
5674;SDS011;2860;54.284;10.158;2023-04-24T06:09:20;3.20;;;3.10;;
5674;SDS011;2860;54.284;10.158;2023-04-24T06:11:49;4.05;;;2.97;;
5674;SDS011;2860;54.284;10.158;2023-04-24T06:14:17;2.38;;;2.38;;
5674;SDS011;2860;54.284;10.158;2023-04-24T06:16:43;4.03;;;3.60;;
5674;SDS011;2860;54.284;10.158;2023-04-24T06:19:08;2.17;;;2.17;;
5674;SDS011;2860;54.284;10.158;2023-04-24T06:21:34;3.08;;;2.97;;
5674;SDS011;2860;54.284;10.158;2023-04-24T06:24:00;2.67;;;2.58;;
5674;SDS011;2860;54.284;10.158;2023-04-24T06:26:25;2.53;;;2.50;;
5674;SDS011;2860;54.284;10.158;2023-04-24T06:28:51;2.55;;;2.55;;
5674;SDS011;2860;54.284;10.158;2023-04-24T06:31:18;2.70;;;2.65;;
5674;SDS011;2860;54.284;10.158;2023-04-24T06:33:44;2.90;;;2.90;;
5674;SDS011;2860;54.284;10.158;2023-04-24T06:36:12;2.13;;;2.13;;
5674;SDS011;2860;54.284;10.158;2023-04-24T06:38:37;2.75;;;2.65;;
5674;SDS011;2860;54.284;10.158;2023-04-24T06:41:03;2.90;;;2.80;;
5674;SDS011;2860;54.284;10.158;2023-04-24T06:43:30;2.80;;;2.80;;
5674;SDS011;2860;54.284;10.158;2023-04-24T06:45:59;3.10;;;3.10;;
5674;SDS011;2860;54.284;10.158;2023-04-24T06:48:25;2.45;;;2.45;;
5674;SDS011;2860;54.284;10.158;2023-04-24T06:50:51;2.67;;;2.63;;
5674;SDS011;2860;54.284;10.158;2023-04-24T06:53:17;2.30;;;2.30;;
5674;SDS011;2860;54.284;10.158;2023-04-24T06:55:42;2.80;;;2.50;;
5674;SDS011;2860;54.284;10.158;2023-04-24T06:58:09;3.55;;;3.20;;
5674;SDS011;2860;54.284;10.158;2023-04-24T07:00:35;2.40;;;2.40;;
5674;SDS011;2860;54.284;10.158;2023-04-24T07:03:01;2.83;;;2.63;;
5674;SDS011;2860;54.284;10.158;2023-04-24T07:05:27;2.30;;;2.30;;
5674;SDS011;2860;54.284;10.158;2023-04-24T07:07:53;2.50;;;2.47;;
5674;SDS011;2860;54.284;10.158;2023-04-24T07:10:18;2.22;;;2.13;;
5674;SDS011;2860;54.284;10.158;2023-04-24T07:12:45;2.70;;;2.70;;
5674;SDS011;2860;54.284;10.158;2023-04-24T07:15:11;2.58;;;2.58;;
5674;SDS011;2860;54.284;10.158;2023-04-24T07:17:37;2.33;;;2.33;;
5674;SDS011;2860;54.284;10.158;2023-04-24T07:20:03;2.72;;;2.70;;
5674;SDS011;2860;54.284;10.158;2023-04-24T07:22:30;2.10;;;2.10;;
5674;SDS011;2860;54.284;10.158;2023-04-24T07:24:56;2.17;;;2.15;;
5674;SDS011;2860;54.284;10.158;2023-04-24T07:27:21;2.15;;;2.10;;
5674;SDS011;2860;54.284;10.158;2023-04-24T07:29:47;2.25;;;2.15;;
5674;SDS011;2860;54.284;10.158;2023-04-24T07:32:12;3.47;;;3.38;;
5674;SDS011;2860;54.284;10.158;2023-04-24T07:34:38;3.47;;;3.38;;
5674;SDS011;2860;54.284;10.158;2023-04-24T07:37:03;3.03;;;2.95;;
5674;SDS011;2860;54.284;10.158;2023-04-24T07:39:29;4.35;;;2.90;;
5674;SDS011;2860;54.284;10.158;2023-04-24T07:41:55;2.47;;;2.42;;
5674;SDS011;2860;54.284;10.158;2023-04-24T07:44:20;3.00;;;3.00;;
5674;SDS011;2860;54.284;10.158;2023-04-24T07:46:46;3.70;;;3.40;;
5674;SDS011;2860;54.284;10.158;2023-04-24T07:49:12;3.63;;;3.10;;
5674;SDS011;2860;54.284;10.158;2023-04-24T07:51:37;3.25;;;3.25;;
5674;SDS011;2860;54.284;10.158;2023-04-24T07:54:04;2.78;;;2.78;;
5674;SDS011;2860;54.284;10.158;2023-04-24T07:56:33;2.85;;;2.75;;
5674;SDS011;2860;54.284;10.158;2023-04-24T07:58:59;3.08;;;2.97;;
5674;SDS011;2860;54.284;10.158;2023-04-24T08:01:26;3.30;;;3.20;;
5674;SDS011;2860;54.284;10.158;2023-04-24T08:03:51;3.50;;;3.25;;
5674;SDS011;2860;54.284;10.158;2023-04-24T08:06:17;3.70;;;3.45;;
5674;SDS011;2860;54.284;10.158;2023-04-24T08:08:42;3.45;;;3.35;;
5674;SDS011;2860;54.284;10.158;2023-04-24T08:11:08;3.63;;;3.15;;
5674;SDS011;2860;54.284;10.158;2023-04-24T08:13:34;3.40;;;3.40;;
5674;SDS011;2860;54.284;10.158;2023-04-24T08:15:59;3.17;;;3.08;;
5674;SDS011;2860;54.284;10.158;2023-04-24T08:18:25;3.88;;;3.63;;
5674;SDS011;2860;54.284;10.158;2023-04-24T08:20:51;3.35;;;3.25;;
5674;SDS011;2860;54.284;10.158;2023-04-24T08:23:16;3.13;;;3.13;;
5674;SDS011;2860;54.284;10.158;2023-04-24T08:25:42;2.95;;;2.95;;
5674;SDS011;2860;54.284;10.158;2023-04-24T08:28:08;4.00;;;3.80;;
5674;SDS011;2860;54.284;10.158;2023-04-24T08:30:44;4.00;;;3.70;;
5674;SDS011;2860;54.284;10.158;2023-04-24T08:33:10;4.35;;;4.10;;
5674;SDS011;2860;54.284;10.158;2023-04-24T08:35:36;3.70;;;3.50;;
5674;SDS011;2860;54.284;10.158;2023-04-24T08:38:01;4.10;;;3.90;;
5674;SDS011;2860;54.284;10.158;2023-04-24T08:40:27;4.60;;;4.40;;
5674;SDS011;2860;54.284;10.158;2023-04-24T08:42:54;4.45;;;4.35;;
5674;SDS011;2860;54.284;10.158;2023-04-24T08:45:22;4.30;;;4.20;;
5674;SDS011;2860;54.284;10.158;2023-04-24T08:47:48;4.90;;;4.80;;
5674;SDS011;2860;54.284;10.158;2023-04-24T08:50:14;5.07;;;4.88;;
5674;SDS011;2860;54.284;10.158;2023-04-24T08:52:41;5.28;;;4.93;;
5674;SDS011;2860;54.284;10.158;2023-04-24T08:55:07;5.22;;;5.10;;
5674;SDS011;2860;54.284;10.158;2023-04-24T08:57:33;4.60;;;4.50;;
5674;SDS011;2860;54.284;10.158;2023-04-24T09:00:00;4.80;;;4.70;;
5674;SDS011;2860;54.284;10.158;2023-04-24T09:02:26;4.68;;;4.53;;
5674;SDS011;2860;54.284;10.158;2023-04-24T09:04:53;5.03;;;4.88;;
5674;SDS011;2860;54.284;10.158;2023-04-24T09:07:22;4.68;;;4.57;;
5674;SDS011;2860;54.284;10.158;2023-04-24T09:09:50;4.03;;;3.83;;
5674;SDS011;2860;54.284;10.158;2023-04-24T09:12:17;4.00;;;3.80;;
5674;SDS011;2860;54.284;10.158;2023-04-24T09:14:44;5.07;;;4.93;;
5674;SDS011;2860;54.284;10.158;2023-04-24T09:17:10;4.32;;;4.22;;
5674;SDS011;2860;54.284;10.158;2023-04-24T09:19:36;5.63;;;5.22;;
5674;SDS011;2860;54.284;10.158;2023-04-24T09:22:05;5.53;;;5.32;;
5674;SDS011;2860;54.284;10.158;2023-04-24T09:24:31;5.45;;;5.07;;
5674;SDS011;2860;54.284;10.158;2023-04-24T09:26:58;5.25;;;5.15;;
5674;SDS011;2860;54.284;10.158;2023-04-24T09:29:24;6.15;;;5.80;;
5674;SDS011;2860;54.284;10.158;2023-04-24T09:31:50;5.97;;;5.78;;
5674;SDS011;2860;54.284;10.158;2023-04-24T09:34:20;7.13;;;6.47;;
5674;SDS011;2860;54.284;10.158;2023-04-24T09:36:47;6.93;;;6.72;;
5674;SDS011;2860;54.284;10.158;2023-04-24T09:39:13;8.85;;;8.15;;
5674;SDS011;2860;54.284;10.158;2023-04-24T09:44:23;6.82;;;6.53;;
5674;SDS011;2860;54.284;10.158;2023-04-24T09:46:51;6.80;;;6.60;;
5674;SDS011;2860;54.284;10.158;2023-04-24T09:49:25;6.80;;;6.60;;
5674;SDS011;2860;54.284;10.158;2023-04-24T09:52:04;7.22;;;6.68;;
5674;SDS011;2860;54.284;10.158;2023-04-24T09:54:34;7.15;;;6.68;;
5674;SDS011;2860;54.284;10.158;2023-04-24T09:57:01;7.20;;;6.55;;
5674;SDS011;2860;54.284;10.158;2023-04-24T09:59:27;5.95;;;5.57;;
5674;SDS011;2860;54.284;10.158;2023-04-24T10:01:53;6.18;;;5.93;;
5674;SDS011;2860;54.284;10.158;2023-04-24T10:04:19;6.75;;;6.25;;
5674;SDS011;2860;54.284;10.158;2023-04-24T10:06:49;6.25;;;5.95;;
5674;SDS011;2860;54.284;10.158;2023-04-24T10:09:17;7.38;;;7.05;;
5674;SDS011;2860;54.284;10.158;2023-04-24T10:11:44;6.97;;;6.68;;
5674;SDS011;2860;54.284;10.158;2023-04-24T10:14:18;6.60;;;6.40;;
5674;SDS011;2860;54.284;10.158;2023-04-24T10:16:46;6.90;;;6.70;;
5674;SDS011;2860;54.284;10.158;2023-04-24T10:19:12;12.50;;;11.30;;
5674;SDS011;2860;54.284;10.158;2023-04-24T10:21:40;7.47;;;7.07;;
5674;SDS011;2860;54.284;10.158;2023-04-24T10:24:07;6.85;;;6.63;;
5674;SDS011;2860;54.284;10.158;2023-04-24T10:26:34;6.18;;;5.97;;
5674;SDS011;2860;54.284;10.158;2023-04-24T10:28:59;7.97;;;7.68;;
5674;SDS011;2860;54.284;10.158;2023-04-24T10:31:26;7.18;;;6.88;;
5674;SDS011;2860;54.284;10.158;2023-04-24T10:33:55;6.63;;;6.32;;
5674;SDS011;2860;54.284;10.158;2023-04-24T10:36:22;7.72;;;7.32;;
5674;SDS011;2860;54.284;10.158;2023-04-24T10:38:48;7.10;;;6.80;;
5674;SDS011;2860;54.284;10.158;2023-04-24T10:41:15;7.15;;;6.75;;
5674;SDS011;2860;54.284;10.158;2023-04-24T10:43:48;7.63;;;7.35;;
5674;SDS011;2860;54.284;10.158;2023-04-24T10:46:29;7.25;;;6.95;;
5674;SDS011;2860;54.284;10.158;2023-04-24T10:48:55;8.20;;;7.80;;
5674;SDS011;2860;54.284;10.158;2023-04-24T10:51:23;8.63;;;8.13;;
5674;SDS011;2860;54.284;10.158;2023-04-24T10:53:50;8.40;;;7.80;;
5674;SDS011;2860;54.284;10.158;2023-04-24T10:56:16;8.32;;;7.88;;
5674;SDS011;2860;54.284;10.158;2023-04-24T10:58:43;7.70;;;7.40;;
5674;SDS011;2860;54.284;10.158;2023-04-24T11:03:56;7.40;;;7.10;;
5674;SDS011;2860;54.284;10.158;2023-04-24T11:06:33;8.02;;;7.63;;
5674;SDS011;2860;54.284;10.158;2023-04-24T11:09:04;7.53;;;7.22;;
5674;SDS011;2860;54.284;10.158;2023-04-24T11:11:31;7.75;;;7.45;;
5674;SDS011;2860;54.284;10.158;2023-04-24T11:16:34;9.20;;;8.50;;
5674;SDS011;2860;54.284;10.158;2023-04-24T11:19:04;8.63;;;8.13;;
5674;SDS011;2860;54.284;10.158;2023-04-24T11:21:46;9.13;;;8.63;;
5674;SDS011;2860;54.284;10.158;2023-04-24T11:32:14;9.70;;;9.05;;
5674;SDS011;2860;54.284;10.158;2023-04-24T11:34:40;9.32;;;8.82;;
5674;SDS011;2860;54.284;10.158;2023-04-24T11:37:06;8.88;;;8.38;;
5674;SDS011;2860;54.284;10.158;2023-04-24T11:39:36;10.25;;;9.45;;
5674;SDS011;2860;54.284;10.158;2023-04-24T11:42:02;9.98;;;9.27;;
5674;SDS011;2860;54.284;10.158;2023-04-24T11:44:28;9.30;;;8.82;;
5674;SDS011;2860;54.284;10.158;2023-04-24T11:46:55;9.65;;;9.05;;
5674;SDS011;2860;54.284;10.158;2023-04-24T11:49:21;10.27;;;9.73;;
5674;SDS011;2860;54.284;10.158;2023-04-24T11:51:47;9.82;;;9.27;;
5674;SDS011;2860;54.284;10.158;2023-04-24T11:54:12;10.07;;;9.18;;
5674;SDS011;2860;54.284;10.158;2023-04-24T11:56:38;9.20;;;8.60;;
5674;SDS011;2860;54.284;10.158;2023-04-24T11:59:04;10.27;;;9.45;;
5674;SDS011;2860;54.284;10.158;2023-04-24T12:01:29;9.38;;;8.88;;
5674;SDS011;2860;54.284;10.158;2023-04-24T12:04:07;9.93;;;9.15;;
5674;SDS011;2860;54.284;10.158;2023-04-24T12:06:32;9.02;;;8.52;;
5674;SDS011;2860;54.284;10.158;2023-04-24T12:08:57;9.73;;;8.95;;
5674;SDS011;2860;54.284;10.158;2023-04-24T12:11:23;9.70;;;9.00;;
5674;SDS011;2860;54.284;10.158;2023-04-24T12:13:49;9.75;;;9.15;;
5674;SDS011;2860;54.284;10.158;2023-04-24T12:16:14;10.60;;;9.90;;
5674;SDS011;2860;54.284;10.158;2023-04-24T12:18:43;10.82;;;9.80;;
5674;SDS011;2860;54.284;10.158;2023-04-24T12:21:20;10.93;;;10.30;;
5674;SDS011;2860;54.284;10.158;2023-04-24T12:23:47;11.18;;;10.52;;
5674;SDS011;2860;54.284;10.158;2023-04-24T12:26:19;11.40;;;10.52;;
5674;SDS011;2860;54.284;10.158;2023-04-24T12:28:47;11.18;;;10.20;;
5674;SDS011;2860;54.284;10.158;2023-04-24T12:31:14;10.80;;;10.07;;
5674;SDS011;2860;54.284;10.158;2023-04-24T12:33:41;10.48;;;9.50;;
5674;SDS011;2860;54.284;10.158;2023-04-24T12:36:09;10.15;;;9.52;;
5674;SDS011;2860;54.284;10.158;2023-04-24T12:38:35;9.50;;;9.00;;
5674;SDS011;2860;54.284;10.158;2023-04-24T12:41:06;9.98;;;9.38;;
5674;SDS011;2860;54.284;10.158;2023-04-24T12:43:32;10.05;;;9.45;;
5674;SDS011;2860;54.284;10.158;2023-04-24T12:45:58;9.60;;;8.98;;
5674;SDS011;2860;54.284;10.158;2023-04-24T12:48:27;9.73;;;9.23;;
5674;SDS011;2860;54.284;10.158;2023-04-24T12:50:53;8.73;;;8.23;;
5674;SDS011;2860;54.284;10.158;2023-04-24T12:53:20;8.90;;;8.40;;
5674;SDS011;2860;54.284;10.158;2023-04-24T12:55:46;10.70;;;10.07;;
5674;SDS011;2860;54.284;10.158;2023-04-24T12:58:17;10.02;;;9.38;;
5674;SDS011;2860;54.284;10.158;2023-04-24T13:00:46;9.20;;;8.63;;
5674;SDS011;2860;54.284;10.158;2023-04-24T13:03:12;9.95;;;9.35;;
5674;SDS011;2860;54.284;10.158;2023-04-24T13:05:38;11.10;;;10.30;;
5674;SDS011;2860;54.284;10.158;2023-04-24T13:08:03;12.15;;;11.35;;
5674;SDS011;2860;54.284;10.158;2023-04-24T13:10:29;12.70;;;11.70;;
5674;SDS011;2860;54.284;10.158;2023-04-24T13:12:55;12.60;;;11.63;;
5674;SDS011;2860;54.284;10.158;2023-04-24T13:15:21;12.43;;;11.32;;
5674;SDS011;2860;54.284;10.158;2023-04-24T13:17:47;13.32;;;12.15;;
5674;SDS011;2860;54.284;10.158;2023-04-24T13:20:12;15.15;;;13.35;;
5674;SDS011;2860;54.284;10.158;2023-04-24T13:22:38;14.35;;;13.05;;
5674;SDS011;2860;54.284;10.158;2023-04-24T13:25:03;14.25;;;13.05;;
5674;SDS011;2860;54.284;10.158;2023-04-24T13:27:31;14.25;;;13.15;;
5674;SDS011;2860;54.284;10.158;2023-04-24T13:29:56;13.98;;;12.82;;
5674;SDS011;2860;54.284;10.158;2023-04-24T13:32:22;15.43;;;13.98;;
5674;SDS011;2860;54.284;10.158;2023-04-24T13:34:47;15.63;;;13.80;;
5674;SDS011;2860;54.284;10.158;2023-04-24T13:37:16;14.90;;;13.48;;
5674;SDS011;2860;54.284;10.158;2023-04-24T13:39:44;13.80;;;12.60;;
5674;SDS011;2860;54.284;10.158;2023-04-24T13:42:10;13.30;;;12.10;;
5674;SDS011;2860;54.284;10.158;2023-04-24T13:44:35;13.70;;;12.55;;
5674;SDS011;2860;54.284;10.158;2023-04-24T13:47:01;13.98;;;12.88;;
5674;SDS011;2860;54.284;10.158;2023-04-24T13:49:27;14.40;;;12.77;;
5674;SDS011;2860;54.284;10.158;2023-04-24T13:51:53;13.80;;;12.70;;
5674;SDS011;2860;54.284;10.158;2023-04-24T13:54:20;14.05;;;13.05;;
5674;SDS011;2860;54.284;10.158;2023-04-24T13:56:47;14.45;;;13.35;;
5674;SDS011;2860;54.284;10.158;2023-04-24T13:59:12;14.15;;;12.90;;
5674;SDS011;2860;54.284;10.158;2023-04-24T14:01:38;13.77;;;12.57;;
5674;SDS011;2860;54.284;10.158;2023-04-24T14:04:03;12.02;;;11.13;;
5674;SDS011;2860;54.284;10.158;2023-04-24T14:06:29;10.80;;;10.10;;
5674;SDS011;2860;54.284;10.158;2023-04-24T14:08:56;10.50;;;9.85;;
5674;SDS011;2860;54.284;10.158;2023-04-24T14:11:21;10.00;;;9.38;;
5674;SDS011;2860;54.284;10.158;2023-04-24T14:13:47;11.15;;;10.20;;
5674;SDS011;2860;54.284;10.158;2023-04-24T14:16:12;10.25;;;9.65;;
5674;SDS011;2860;54.284;10.158;2023-04-24T14:18:39;10.88;;;10.15;;
5674;SDS011;2860;54.284;10.158;2023-04-24T14:21:04;10.38;;;9.63;;
5674;SDS011;2860;54.284;10.158;2023-04-24T14:23:30;10.13;;;9.43;;
5674;SDS011;2860;54.284;10.158;2023-04-24T14:25:56;9.65;;;8.90;;
5674;SDS011;2860;54.284;10.158;2023-04-24T14:28:22;10.23;;;9.52;;
5674;SDS011;2860;54.284;10.158;2023-04-24T14:30:48;9.30;;;8.65;;
5674;SDS011;2860;54.284;10.158;2023-04-24T14:33:14;9.20;;;8.50;;
5674;SDS011;2860;54.284;10.158;2023-04-24T14:35:40;10.00;;;9.40;;
5674;SDS011;2860;54.284;10.158;2023-04-24T14:38:09;9.00;;;8.50;;
5674;SDS011;2860;54.284;10.158;2023-04-24T14:40:35;8.05;;;7.75;;
5674;SDS011;2860;54.284;10.158;2023-04-24T14:43:01;9.68;;;9.07;;
5674;SDS011;2860;54.284;10.158;2023-04-24T14:45:27;8.95;;;8.35;;
5674;SDS011;2860;54.284;10.158;2023-04-24T14:47:53;8.18;;;7.68;;
5674;SDS011;2860;54.284;10.158;2023-04-24T14:50:19;8.60;;;8.23;;
5674;SDS011;2860;54.284;10.158;2023-04-24T14:52:45;7.63;;;7.13;;
5674;SDS011;2860;54.284;10.158;2023-04-24T14:55:11;9.05;;;8.35;;
5674;SDS011;2860;54.284;10.158;2023-04-24T14:57:36;8.43;;;7.72;;
5674;SDS011;2860;54.284;10.158;2023-04-24T15:00:03;7.95;;;7.55;;
5674;SDS011;2860;54.284;10.158;2023-04-24T15:02:31;7.78;;;7.38;;
5674;SDS011;2860;54.284;10.158;2023-04-24T15:04:57;8.35;;;7.85;;
5674;SDS011;2860;54.284;10.158;2023-04-24T15:07:23;8.18;;;7.78;;